sensor_id;sensor_type;location;lat;lon;timestamp;pressure;altitude;pressure_sealevel;temperature;humidity
44027;BME280;29696;55.698;37.460;2023-06-26T00:01:39;99370.59;;;16.72;64.64
44027;BME280;29696;55.698;37.460;2023-06-26T00:04:06;99374.91;;;16.73;65.91
44027;BME280;29696;55.698;37.460;2023-06-26T00:06:32;99381.41;;;16.71;66.04
44027;BME280;29696;55.698;37.460;2023-06-26T00:08:58;99375.78;;;16.65;65.99
44027;BME280;29696;55.698;37.460;2023-06-26T00:11:25;99378.81;;;16.62;66.37
44027;BME280;29696;55.698;37.460;2023-06-26T00:13:53;99371.38;;;16.58;66.27
44027;BME280;29696;55.698;37.460;2023-06-26T00:16:19;99374.75;;;16.52;66.12
44027;BME280;29696;55.698;37.460;2023-06-26T00:18:47;99373.94;;;16.51;66.20
44027;BME280;29696;55.698;37.460;2023-06-26T00:21:13;99368.09;;;16.48;66.02
44027;BME280;29696;55.698;37.460;2023-06-26T00:23:39;99372.78;;;16.46;65.60
44027;BME280;29696;55.698;37.460;2023-06-26T00:26:06;99372.78;;;16.46;65.66
44027;BME280;29696;55.698;37.460;2023-06-26T00:28:32;99367.47;;;16.46;65.00
44027;BME280;29696;55.698;37.460;2023-06-26T00:30:58;99365.97;;;16.43;65.11
44027;BME280;29696;55.698;37.460;2023-06-26T00:33:25;99369.47;;;16.43;65.48
44027;BME280;29696;55.698;37.460;2023-06-26T00:35:51;99366.81;;;16.43;65.86
44027;BME280;29696;55.698;37.460;2023-06-26T00:38:17;99364.13;;;16.43;66.26
44027;BME280;29696;55.698;37.460;2023-06-26T00:40:44;99357.31;;;16.41;65.87
44027;BME280;29696;55.698;37.460;2023-06-26T00:43:11;99359.63;;;16.44;64.32
44027;BME280;29696;55.698;37.460;2023-06-26T00:45:37;99358.44;;;16.47;64.07
44027;BME280;29696;55.698;37.460;2023-06-26T00:48:04;99359.25;;;16.47;65.26
44027;BME280;29696;55.698;37.460;2023-06-26T00:50:31;99361.09;;;16.47;65.86
44027;BME280;29696;55.698;37.460;2023-06-26T00:52:58;99363.41;;;16.50;65.48
44027;BME280;29696;55.698;37.460;2023-06-26T00:55:27;99363.41;;;16.50;65.24
44027;BME280;29696;55.698;37.460;2023-06-26T00:57:54;99359.56;;;16.52;65.44
44027;BME280;29696;55.698;37.460;2023-06-26T01:00:21;99365.72;;;16.53;64.42
44027;BME280;29696;55.698;37.460;2023-06-26T01:02:48;99358.56;;;16.53;64.88
44027;BME280;29696;55.698;37.460;2023-06-26T01:05:14;99365.00;;;16.59;65.84
44027;BME280;29696;55.698;37.460;2023-06-26T01:07:49;99360.34;;;16.61;65.71
44027;BME280;29696;55.698;37.460;2023-06-26T01:10:19;99367.78;;;16.65;65.22
44027;BME280;29696;55.698;37.460;2023-06-26T01:12:45;99358.22;;;16.71;63.43
44027;BME280;29696;55.698;37.460;2023-06-26T01:15:12;99361.38;;;16.75;64.24
44027;BME280;29696;55.698;37.460;2023-06-26T01:17:39;99369.03;;;16.78;64.45
44027;BME280;29696;55.698;37.460;2023-06-26T01:20:07;99364.72;;;16.77;64.76
44027;BME280;29696;55.698;37.460;2023-06-26T01:23:02;99365.28;;;16.87;65.38
44027;BME280;29696;55.698;37.460;2023-06-26T01:25:39;99363.69;;;16.78;66.01
44027;BME280;29696;55.698;37.460;2023-06-26T01:28:10;99359.25;;;16.70;66.17
44027;BME280;29696;55.698;37.460;2023-06-26T01:30:42;99360.44;;;16.67;65.72
44027;BME280;29696;55.698;37.460;2023-06-26T01:33:09;99360.59;;;16.66;66.20
44027;BME280;29696;55.698;37.460;2023-06-26T01:35:36;99360.13;;;16.62;66.37
44027;BME280;29696;55.698;37.460;2023-06-26T01:38:31;99364.03;;;16.75;66.93
44027;BME280;29696;55.698;37.460;2023-06-26T01:40:59;99349.19;;;16.57;67.22
44027;BME280;29696;55.698;37.460;2023-06-26T01:44:05;99359.91;;;16.72;67.99
44027;BME280;29696;55.698;37.460;2023-06-26T01:47:02;99356.59;;;16.70;67.29
44027;BME280;29696;55.698;37.460;2023-06-26T01:52:48;99357.56;;;16.69;66.68
44027;BME280;29696;55.698;37.460;2023-06-26T01:55:35;99358.59;;;16.68;67.16
44027;BME280;29696;55.698;37.460;2023-06-26T01:58:03;99364.59;;;16.70;66.62
44027;BME280;29696;55.698;37.460;2023-06-26T02:00:31;99360.72;;;16.73;66.76
44027;BME280;29696;55.698;37.460;2023-06-26T02:02:58;99359.56;;;16.75;67.69
44027;BME280;29696;55.698;37.460;2023-06-26T02:05:24;99367.22;;;16.78;68.05
44027;BME280;29696;55.698;37.460;2023-06-26T02:07:51;99371.19;;;16.82;68.38
44027;BME280;29696;55.698;37.460;2023-06-26T02:10:17;99365.03;;;16.82;68.52
44027;BME280;29696;55.698;37.460;2023-06-26T02:12:46;99366.31;;;16.86;68.12
44027;BME280;29696;55.698;37.460;2023-06-26T02:15:15;99360.81;;;16.87;68.27
44027;BME280;29696;55.698;37.460;2023-06-26T02:17:42;99368.72;;;16.96;68.02
44027;BME280;29696;55.698;37.460;2023-06-26T02:20:09;99365.31;;;17.02;68.51
44027;BME280;29696;55.698;37.460;2023-06-26T02:22:37;99361.91;;;17.08;68.14
44027;BME280;29696;55.698;37.460;2023-06-26T02:25:04;99366.72;;;17.13;67.37
44027;BME280;29696;55.698;37.460;2023-06-26T02:27:32;99362.94;;;17.22;67.17
44027;BME280;29696;55.698;37.460;2023-06-26T02:29:59;99362.28;;;17.34;66.42
44027;BME280;29696;55.698;37.460;2023-06-26T02:32:25;99366.63;;;17.50;66.61
44027;BME280;29696;55.698;37.460;2023-06-26T02:34:51;99370.66;;;17.61;66.41
44027;BME280;29696;55.698;37.460;2023-06-26T02:37:18;99366.69;;;17.72;65.99
44027;BME280;29696;55.698;37.460;2023-06-26T02:39:45;99361.75;;;17.84;65.72
44027;BME280;29696;55.698;37.460;2023-06-26T02:42:12;99359.84;;;17.99;65.26
44027;BME280;29696;55.698;37.460;2023-06-26T02:44:38;99369.84;;;18.12;65.06
44027;BME280;29696;55.698;37.460;2023-06-26T02:47:05;99374.50;;;18.24;64.77
44027;BME280;29696;55.698;37.460;2023-06-26T02:49:32;99365.16;;;18.35;62.86
44027;BME280;29696;55.698;37.460;2023-06-26T02:51:58;99368.47;;;18.59;62.67
44027;BME280;29696;55.698;37.460;2023-06-26T02:54:28;99370.91;;;18.75;61.53
44027;BME280;29696;55.698;37.460;2023-06-26T02:57:00;99362.34;;;18.86;59.92
44027;BME280;29696;55.698;37.460;2023-06-26T02:59:29;99373.75;;;18.95;60.01
44027;BME280;29696;55.698;37.460;2023-06-26T03:01:56;99366.97;;;18.99;59.31
44027;BME280;29696;55.698;37.460;2023-06-26T03:04:29;99370.41;;;19.14;59.03
44027;BME280;29696;55.698;37.460;2023-06-26T03:06:56;99376.47;;;19.30;57.77
44027;BME280;29696;55.698;37.460;2023-06-26T03:09:22;99370.75;;;19.39;58.68
44027;BME280;29696;55.698;37.460;2023-06-26T03:11:49;99365.41;;;19.46;58.13
44027;BME280;29696;55.698;37.460;2023-06-26T03:14:16;99373.25;;;19.89;57.33
44027;BME280;29696;55.698;37.460;2023-06-26T03:16:42;99372.78;;;20.40;56.73
44027;BME280;29696;55.698;37.460;2023-06-26T03:19:09;99367.28;;;20.68;54.55
44027;BME280;29696;55.698;37.460;2023-06-26T03:21:55;99362.72;;;21.80;52.33
44027;BME280;29696;55.698;37.460;2023-06-26T03:24:22;99360.56;;;22.91;48.53
44027;BME280;29696;55.698;37.460;2023-06-26T03:26:49;99356.94;;;23.84;45.97
44027;BME280;29696;55.698;37.460;2023-06-26T03:29:15;99354.91;;;24.70;44.86
44027;BME280;29696;55.698;37.460;2023-06-26T03:31:41;99350.44;;;25.58;43.93
44027;BME280;29696;55.698;37.460;2023-06-26T03:34:08;99345.50;;;26.24;39.45
44027;BME280;29696;55.698;37.460;2023-06-26T03:36:34;99351.56;;;26.93;37.91
44027;BME280;29696;55.698;37.460;2023-06-26T03:39:02;99348.78;;;27.66;36.29
44027;BME280;29696;55.698;37.460;2023-06-26T03:41:30;99352.09;;;28.44;34.80
44027;BME280;29696;55.698;37.460;2023-06-26T03:43:56;99350.25;;;29.24;32.43
44027;BME280;29696;55.698;37.460;2023-06-26T03:46:29;99340.50;;;29.96;31.60
44027;BME280;29696;55.698;37.460;2023-06-26T03:48:57;99344.16;;;30.33;29.47
44027;BME280;29696;55.698;37.460;2023-06-26T03:51:24;99346.88;;;30.99;28.54
44027;BME280;29696;55.698;37.460;2023-06-26T03:53:50;99340.78;;;31.53;28.08
44027;BME280;29696;55.698;37.460;2023-06-26T03:56:16;99349.38;;;31.81;26.51
44027;BME280;29696;55.698;37.460;2023-06-26T03:58:43;99349.06;;;32.37;25.89
44027;BME280;29696;55.698;37.460;2023-06-26T04:01:10;99341.13;;;32.36;25.74
44027;BME280;29696;55.698;37.460;2023-06-26T04:03:37;99350.47;;;32.69;25.13
44027;BME280;29696;55.698;37.460;2023-06-26T04:06:03;99337.25;;;33.10;24.49
44027;BME280;29696;55.698;37.460;2023-06-26T04:08:29;99336.59;;;32.89;24.28
44027;BME280;29696;55.698;37.460;2023-06-26T04:10:56;99348.31;;;32.66;24.67
44027;BME280;29696;55.698;37.460;2023-06-26T04:13:24;99345.19;;;32.43;24.56
44027;BME280;29696;55.698;37.460;2023-06-26T04:15:51;99350.22;;;31.76;25.17
44027;BME280;29696;55.698;37.460;2023-06-26T04:18:17;99355.31;;;30.72;26.17
44027;BME280;29696;55.698;37.460;2023-06-26T04:21:07;99359.19;;;30.97;26.85
44027;BME280;29696;55.698;37.460;2023-06-26T04:23:34;99352.16;;;29.71;27.63
44027;BME280;29696;55.698;37.460;2023-06-26T04:26:01;99348.44;;;29.40;28.51
44027;BME280;29696;55.698;37.460;2023-06-26T04:28:28;99346.16;;;29.79;28.30
44027;BME280;29696;55.698;37.460;2023-06-26T04:30:55;99349.06;;;30.61;27.43
44027;BME280;29696;55.698;37.460;2023-06-26T04:33:21;99351.16;;;31.46;25.33
44027;BME280;29696;55.698;37.460;2023-06-26T04:35:47;99341.47;;;32.29;24.99
44027;BME280;29696;55.698;37.460;2023-06-26T04:38:15;99349.25;;;32.85;23.93
44027;BME280;29696;55.698;37.460;2023-06-26T04:40:42;99350.25;;;32.60;23.25
44027;BME280;29696;55.698;37.460;2023-06-26T04:43:08;99347.19;;;33.01;23.60
44027;BME280;29696;55.698;37.460;2023-06-26T04:45:35;99346.00;;;33.12;23.34
44027;BME280;29696;55.698;37.460;2023-06-26T04:48:02;99346.78;;;33.85;23.29
44027;BME280;29696;55.698;37.460;2023-06-26T04:50:28;99344.28;;;35.11;22.49
44027;BME280;29696;55.698;37.460;2023-06-26T04:52:55;99343.09;;;35.58;20.83
44027;BME280;29696;55.698;37.460;2023-06-26T04:55:24;99349.47;;;35.81;20.27
44027;BME280;29696;55.698;37.460;2023-06-26T04:57:50;99343.81;;;36.37;20.62
44027;BME280;29696;55.698;37.460;2023-06-26T05:00:17;99345.81;;;36.22;20.27
44027;BME280;29696;55.698;37.460;2023-06-26T05:02:44;99338.13;;;35.97;19.79
44027;BME280;29696;55.698;37.460;2023-06-26T05:05:11;99340.78;;;35.88;20.00
44027;BME280;29696;55.698;37.460;2023-06-26T05:07:38;99352.56;;;35.66;21.18
44027;BME280;29696;55.698;37.460;2023-06-26T05:10:05;99346.28;;;35.05;21.08
44027;BME280;29696;55.698;37.460;2023-06-26T05:12:31;99350.28;;;35.40;20.84
44027;BME280;29696;55.698;37.460;2023-06-26T05:14:58;99355.47;;;35.28;20.68
44027;BME280;29696;55.698;37.460;2023-06-26T05:17:24;99347.66;;;35.21;20.85
44027;BME280;29696;55.698;37.460;2023-06-26T05:19:50;99343.00;;;35.03;20.33
44027;BME280;29696;55.698;37.460;2023-06-26T05:22:17;99345.66;;;34.94;20.13
44027;BME280;29696;55.698;37.460;2023-06-26T05:24:46;99350.88;;;35.24;20.42
44027;BME280;29696;55.698;37.460;2023-06-26T05:27:13;99339.19;;;35.18;20.46
44027;BME280;29696;55.698;37.460;2023-06-26T05:29:48;99354.06;;;35.72;19.78
44027;BME280;29696;55.698;37.460;2023-06-26T05:32:16;99351.03;;;36.10;19.49
44027;BME280;29696;55.698;37.460;2023-06-26T05:34:49;99354.03;;;37.12;18.67
44027;BME280;29696;55.698;37.460;2023-06-26T05:37:22;99345.34;;;37.19;18.23
44027;BME280;29696;55.698;37.460;2023-06-26T05:39:48;99333.03;;;37.25;18.18
44027;BME280;29696;55.698;37.460;2023-06-26T05:42:15;99340.47;;;37.64;17.78
44027;BME280;29696;55.698;37.460;2023-06-26T05:44:41;99335.31;;;37.80;17.29
44027;BME280;29696;55.698;37.460;2023-06-26T05:47:08;99347.75;;;37.69;16.64
44027;BME280;29696;55.698;37.460;2023-06-26T05:49:34;99335.47;;;37.84;17.15
44027;BME280;29696;55.698;37.460;2023-06-26T05:52:01;99340.16;;;37.83;17.30
44027;BME280;29696;55.698;37.460;2023-06-26T05:54:27;99337.09;;;37.36;16.85
44027;BME280;29696;55.698;37.460;2023-06-26T05:56:57;99344.16;;;37.51;17.50
44027;BME280;29696;55.698;37.460;2023-06-26T05:59:26;99342.50;;;37.01;17.75
44027;BME280;29696;55.698;37.460;2023-06-26T06:01:53;99339.31;;;36.41;18.05
44027;BME280;29696;55.698;37.460;2023-06-26T06:04:19;99344.78;;;36.32;18.59
44027;BME280;29696;55.698;37.460;2023-06-26T06:06:46;99332.41;;;36.66;18.45
44027;BME280;29696;55.698;37.460;2023-06-26T06:09:12;99336.31;;;38.63;17.58
44027;BME280;29696;55.698;37.460;2023-06-26T06:11:38;99341.34;;;38.34;16.72
44027;BME280;29696;55.698;37.460;2023-06-26T06:14:05;99342.19;;;38.09;17.08
44027;BME280;29696;55.698;37.460;2023-06-26T06:16:31;99329.19;;;38.18;16.97
44027;BME280;29696;55.698;37.460;2023-06-26T06:18:57;99328.50;;;37.86;16.95
44027;BME280;29696;55.698;37.460;2023-06-26T06:21:24;99332.53;;;37.72;17.45
44027;BME280;29696;55.698;37.460;2023-06-26T06:23:50;99335.66;;;38.05;16.98
44027;BME280;29696;55.698;37.460;2023-06-26T06:26:16;99339.06;;;37.93;16.89
44027;BME280;29696;55.698;37.460;2023-06-26T06:28:43;99326.28;;;37.97;17.01
44027;BME280;29696;55.698;37.460;2023-06-26T06:31:09;99324.94;;;38.38;16.36
44027;BME280;29696;55.698;37.460;2023-06-26T06:33:35;99330.31;;;38.17;16.90
44027;BME280;29696;55.698;37.460;2023-06-26T06:36:02;99330.50;;;38.29;16.78
44027;BME280;29696;55.698;37.460;2023-06-26T06:38:28;99329.81;;;38.58;16.34
44027;BME280;29696;55.698;37.460;2023-06-26T06:40:54;99324.72;;;38.95;15.62
44027;BME280;29696;55.698;37.460;2023-06-26T06:43:21;99319.88;;;39.22;15.83
44027;BME280;29696;55.698;37.460;2023-06-26T06:45:47;99319.28;;;39.46;15.42
44027;BME280;29696;55.698;37.460;2023-06-26T06:48:13;99336.84;;;38.47;15.90
44027;BME280;29696;55.698;37.460;2023-06-26T06:50:39;99319.94;;;37.39;16.76
44027;BME280;29696;55.698;37.460;2023-06-26T06:53:07;99315.44;;;37.43;16.49
44027;BME280;29696;55.698;37.460;2023-06-26T06:55:34;99317.13;;;37.62;16.13
44027;BME280;29696;55.698;37.460;2023-06-26T06:58:00;99332.25;;;37.90;15.82
44027;BME280;29696;55.698;37.460;2023-06-26T07:00:26;99306.59;;;38.59;15.75
44027;BME280;29696;55.698;37.460;2023-06-26T07:02:52;99333.34;;;38.85;14.67
44027;BME280;29696;55.698;37.460;2023-06-26T07:05:19;99308.22;;;39.16;13.94
44027;BME280;29696;55.698;37.460;2023-06-26T07:07:45;99310.22;;;39.37;13.56
44027;BME280;29696;55.698;37.460;2023-06-26T07:10:14;99327.25;;;39.09;14.31
44027;BME280;29696;55.698;37.460;2023-06-26T07:12:40;99324.00;;;38.51;14.49
44027;BME280;29696;55.698;37.460;2023-06-26T07:15:07;99304.13;;;38.75;14.74
44027;BME280;29696;55.698;37.460;2023-06-26T07:17:34;99309.59;;;38.84;14.44
44027;BME280;29696;55.698;37.460;2023-06-26T07:20:02;99312.00;;;38.47;13.71
44027;BME280;29696;55.698;37.460;2023-06-26T07:22:32;99313.25;;;38.50;13.78
44027;BME280;29696;55.698;37.460;2023-06-26T07:24:58;99303.00;;;38.68;14.41
44027;BME280;29696;55.698;37.460;2023-06-26T07:27:25;99300.94;;;38.47;14.22
44027;BME280;29696;55.698;37.460;2023-06-26T07:29:51;99300.63;;;39.04;13.29
44027;BME280;29696;55.698;37.460;2023-06-26T07:32:18;99297.25;;;39.29;13.71
44027;BME280;29696;55.698;37.460;2023-06-26T07:34:44;99305.59;;;39.20;13.75
44027;BME280;29696;55.698;37.460;2023-06-26T07:37:10;99306.34;;;38.91;13.60
44027;BME280;29696;55.698;37.460;2023-06-26T07:39:37;99296.34;;;38.69;13.51
44027;BME280;29696;55.698;37.460;2023-06-26T07:42:03;99301.75;;;38.30;14.38
44027;BME280;29696;55.698;37.460;2023-06-26T07:44:30;99299.16;;;38.08;13.49
44027;BME280;29696;55.698;37.460;2023-06-26T07:46:56;99313.09;;;38.55;13.50
44027;BME280;29696;55.698;37.460;2023-06-26T07:49:22;99298.84;;;38.01;14.43
44027;BME280;29696;55.698;37.460;2023-06-26T07:51:49;99292.69;;;37.95;14.42
44027;BME280;29696;55.698;37.460;2023-06-26T07:54:15;99305.47;;;37.16;15.19
44027;BME280;29696;55.698;37.460;2023-06-26T07:56:59;99286.19;;;38.08;15.30
44027;BME280;29696;55.698;37.460;2023-06-26T07:59:26;99290.03;;;37.15;15.67
44027;BME280;29696;55.698;37.460;2023-06-26T08:01:54;99295.91;;;34.82;17.80
44027;BME280;29696;55.698;37.460;2023-06-26T08:04:24;99286.03;;;34.81;18.16
44027;BME280;29696;55.698;37.460;2023-06-26T08:06:52;99286.56;;;33.99;18.80
44027;BME280;29696;55.698;37.460;2023-06-26T08:09:20;99287.22;;;33.72;19.69
44027;BME280;29696;55.698;37.460;2023-06-26T08:11:47;99283.31;;;33.78;19.22
44027;BME280;29696;55.698;37.460;2023-06-26T08:14:14;99286.44;;;32.01;21.07
44027;BME280;29696;55.698;37.460;2023-06-26T08:16:42;99279.19;;;32.21;21.07
44027;BME280;29696;55.698;37.460;2023-06-26T08:19:08;99276.97;;;31.24;21.94
44027;BME280;29696;55.698;37.460;2023-06-26T08:21:35;99268.91;;;30.62;23.04
44027;BME280;29696;55.698;37.460;2023-06-26T08:24:01;99286.31;;;30.15;23.15
44027;BME280;29696;55.698;37.460;2023-06-26T08:26:28;99284.41;;;29.22;24.85
44027;BME280;29696;55.698;37.460;2023-06-26T08:28:55;99276.09;;;28.54;26.08
44027;BME280;29696;55.698;37.460;2023-06-26T08:31:21;99284.97;;;28.12;26.95
44027;BME280;29696;55.698;37.460;2023-06-26T08:33:47;99278.03;;;27.50;27.87
44027;BME280;29696;55.698;37.460;2023-06-26T08:36:14;99296.75;;;26.91;28.59
44027;BME280;29696;55.698;37.460;2023-06-26T08:38:41;99290.59;;;26.28;29.63
44027;BME280;29696;55.698;37.460;2023-06-26T08:41:07;99282.91;;;25.91;30.29
44027;BME280;29696;55.698;37.460;2023-06-26T08:43:34;99284.28;;;25.65;31.10
44027;BME280;29696;55.698;37.460;2023-06-26T08:46:02;99280.81;;;25.41;31.37
44027;BME280;29696;55.698;37.460;2023-06-26T08:48:32;99283.88;;;25.45;31.78
44027;BME280;29696;55.698;37.460;2023-06-26T08:51:09;99287.78;;;25.37;31.05
44027;BME280;29696;55.698;37.460;2023-06-26T08:53:57;99285.66;;;25.27;31.54
44027;BME280;29696;55.698;37.460;2023-06-26T08:56:27;99276.19;;;24.78;32.50
44027;BME280;29696;55.698;37.460;2023-06-26T08:58:55;99273.50;;;24.78;31.76
44027;BME280;29696;55.698;37.460;2023-06-26T09:01:21;99286.28;;;24.71;32.40
44027;BME280;29696;55.698;37.460;2023-06-26T09:03:50;99279.13;;;24.65;32.09
44027;BME280;29696;55.698;37.460;2023-06-26T09:06:17;99271.00;;;24.65;32.46
44027;BME280;29696;55.698;37.460;2023-06-26T09:08:45;99266.56;;;24.70;33.28
44027;BME280;29696;55.698;37.460;2023-06-26T09:11:11;99268.22;;;24.59;32.55
44027;BME280;29696;55.698;37.460;2023-06-26T09:13:39;99275.72;;;24.46;33.32
44027;BME280;29696;55.698;37.460;2023-06-26T09:16:06;99276.00;;;24.26;34.05
44027;BME280;29696;55.698;37.460;2023-06-26T09:18:34;99279.59;;;24.08;34.05
44027;BME280;29696;55.698;37.460;2023-06-26T09:21:07;99274.44;;;24.06;34.49
44027;BME280;29696;55.698;37.460;2023-06-26T09:23:34;99268.84;;;23.89;35.39
44027;BME280;29696;55.698;37.460;2023-06-26T09:26:03;99270.75;;;23.89;35.18
44027;BME280;29696;55.698;37.460;2023-06-26T09:28:30;99275.41;;;23.82;35.49
44027;BME280;29696;55.698;37.460;2023-06-26T09:31:01;99278.84;;;23.89;35.28
44027;BME280;29696;55.698;37.460;2023-06-26T09:33:37;99267.81;;;23.90;35.04
44027;BME280;29696;55.698;37.460;2023-06-26T09:36:07;99270.78;;;24.01;34.91
44027;BME280;29696;55.698;37.460;2023-06-26T09:38:36;99266.81;;;24.03;35.47
44027;BME280;29696;55.698;37.460;2023-06-26T09:41:03;99267.50;;;24.10;35.16
44027;BME280;29696;55.698;37.460;2023-06-26T09:43:29;99273.50;;;24.12;34.81
44027;BME280;29696;55.698;37.460;2023-06-26T09:45:58;99260.63;;;24.14;35.12
44027;BME280;29696;55.698;37.460;2023-06-26T09:48:24;99263.41;;;24.20;34.65
44027;BME280;29696;55.698;37.460;2023-06-26T09:50:51;99266.97;;;24.20;34.63
44027;BME280;29696;55.698;37.460;2023-06-26T09:53:17;99256.38;;;24.19;34.60
44027;BME280;29696;55.698;37.460;2023-06-26T09:55:44;99267.88;;;24.26;35.52
44027;BME280;29696;55.698;37.460;2023-06-26T09:58:12;99246.66;;;24.18;35.29
44027;BME280;29696;55.698;37.460;2023-06-26T10:00:43;99262.09;;;24.10;34.77
44027;BME280;29696;55.698;37.460;2023-06-26T10:03:10;99264.31;;;24.02;35.06
44027;BME280;29696;55.698;37.460;2023-06-26T10:05:40;99271.91;;;23.93;32.88
44027;BME280;29696;55.698;37.460;2023-06-26T10:08:07;99260.16;;;23.76;33.40
44027;BME280;29696;55.698;37.460;2023-06-26T10:10:37;99267.03;;;23.72;32.69
44027;BME280;29696;55.698;37.460;2023-06-26T10:13:11;99268.25;;;23.57;33.37
44027;BME280;29696;55.698;37.460;2023-06-26T10:15:42;99264.13;;;23.55;34.31
44027;BME280;29696;55.698;37.460;2023-06-26T10:18:12;99266.38;;;23.58;33.59
44027;BME280;29696;55.698;37.460;2023-06-26T10:20:40;99259.09;;;23.58;33.74
44027;BME280;29696;55.698;37.460;2023-06-26T10:23:09;99258.19;;;23.64;33.97
44027;BME280;29696;55.698;37.460;2023-06-26T10:25:37;99261.94;;;23.63;33.75
44027;BME280;29696;55.698;37.460;2023-06-26T10:28:09;99257.31;;;23.71;33.11
44027;BME280;29696;55.698;37.460;2023-06-26T10:30:36;99251.34;;;23.80;33.31
44027;BME280;29696;55.698;37.460;2023-06-26T10:33:04;99248.13;;;24.02;32.16
44027;BME280;29696;55.698;37.460;2023-06-26T10:35:31;99243.00;;;24.12;32.31
44027;BME280;29696;55.698;37.460;2023-06-26T10:38:02;99242.78;;;24.37;32.00
44027;BME280;29696;55.698;37.460;2023-06-26T10:40:48;99244.38;;;24.56;32.11
44027;BME280;29696;55.698;37.460;2023-06-26T10:43:15;99244.88;;;24.35;31.59
44027;BME280;29696;55.698;37.460;2023-06-26T10:45:47;99234.59;;;24.44;31.48
44027;BME280;29696;55.698;37.460;2023-06-26T10:48:18;99230.25;;;24.43;31.43
44027;BME280;29696;55.698;37.460;2023-06-26T10:50:48;99237.91;;;24.57;31.49
44027;BME280;29696;55.698;37.460;2023-06-26T10:53:38;99236.34;;;24.85;31.38
44027;BME280;29696;55.698;37.460;2023-06-26T10:56:06;99230.97;;;24.62;32.04
44027;BME280;29696;55.698;37.460;2023-06-26T10:59:10;99228.38;;;24.90;32.05
44027;BME280;29696;55.698;37.460;2023-06-26T11:01:41;99225.34;;;24.75;32.35
44027;BME280;29696;55.698;37.460;2023-06-26T11:04:10;99220.41;;;24.72;32.64
44027;BME280;29696;55.698;37.460;2023-06-26T11:06:38;99225.34;;;24.75;33.11
44027;BME280;29696;55.698;37.460;2023-06-26T11:09:25;99231.19;;;24.95;33.23
44027;BME280;29696;55.698;37.460;2023-06-26T11:12:11;99219.19;;;24.91;33.54
44027;BME280;29696;55.698;37.460;2023-06-26T11:14:38;99220.06;;;24.68;33.96
44027;BME280;29696;55.698;37.460;2023-06-26T11:17:05;99214.28;;;24.53;32.84
44027;BME280;29696;55.698;37.460;2023-06-26T11:19:32;99217.09;;;24.46;33.51
44027;BME280;29696;55.698;37.460;2023-06-26T11:21:59;99216.06;;;24.47;33.64
44027;BME280;29696;55.698;37.460;2023-06-26T11:24:27;99221.09;;;24.55;34.48
44027;BME280;29696;55.698;37.460;2023-06-26T11:27:00;99217.56;;;24.67;32.39
44027;BME280;29696;55.698;37.460;2023-06-26T11:29:28;99219.69;;;24.65;32.27
44027;BME280;29696;55.698;37.460;2023-06-26T11:32:04;99212.28;;;24.83;31.29
44027;BME280;29696;55.698;37.460;2023-06-26T11:34:33;99205.34;;;24.88;31.30
44027;BME280;29696;55.698;37.460;2023-06-26T11:36:59;99199.56;;;24.96;31.37
44027;BME280;29696;55.698;37.460;2023-06-26T11:39:27;99199.22;;;24.92;32.07
44027;BME280;29696;55.698;37.460;2023-06-26T11:41:54;99191.97;;;24.81;32.02
44027;BME280;29696;55.698;37.460;2023-06-26T11:44:21;99205.13;;;24.77;32.27
44027;BME280;29696;55.698;37.460;2023-06-26T11:46:47;99186.56;;;24.81;31.35
44027;BME280;29696;55.698;37.460;2023-06-26T11:49:17;99189.84;;;24.83;32.02
44027;BME280;29696;55.698;37.460;2023-06-26T11:51:43;99183.22;;;25.02;32.43
44027;BME280;29696;55.698;37.460;2023-06-26T11:54:09;99172.06;;;24.99;31.62
44027;BME280;29696;55.698;37.460;2023-06-26T11:56:37;99178.00;;;25.13;31.84
44027;BME280;29696;55.698;37.460;2023-06-26T11:59:06;99171.69;;;25.19;32.01
44027;BME280;29696;55.698;37.460;2023-06-26T12:01:56;99171.00;;;25.40;31.58
44027;BME280;29696;55.698;37.460;2023-06-26T12:04:23;99170.94;;;25.23;31.51
44027;BME280;29696;55.698;37.460;2023-06-26T12:06:52;99175.50;;;25.35;31.63
44027;BME280;29696;55.698;37.460;2023-06-26T12:09:23;99169.88;;;25.53;31.28
44027;BME280;29696;55.698;37.460;2023-06-26T12:11:53;99173.66;;;25.52;31.36
44027;BME280;29696;55.698;37.460;2023-06-26T12:14:22;99165.28;;;25.54;30.98
44027;BME280;29696;55.698;37.460;2023-06-26T12:16:49;99148.66;;;25.62;31.75
44027;BME280;29696;55.698;37.460;2023-06-26T12:19:15;99142.09;;;25.74;30.93
44027;BME280;29696;55.698;37.460;2023-06-26T12:22:05;99149.16;;;26.26;30.93
44027;BME280;29696;55.698;37.460;2023-06-26T12:24:32;99139.19;;;26.27;30.85
44027;BME280;29696;55.698;37.460;2023-06-26T12:26:58;99156.16;;;26.22;29.71
44027;BME280;29696;55.698;37.460;2023-06-26T12:29:34;99151.97;;;26.31;29.62
44027;BME280;29696;55.698;37.460;2023-06-26T12:32:02;99141.25;;;26.03;29.44
44027;BME280;29696;55.698;37.460;2023-06-26T12:34:32;99136.41;;;26.05;29.85
44027;BME280;29696;55.698;37.460;2023-06-26T12:37:02;99139.38;;;26.03;30.01
44027;BME280;29696;55.698;37.460;2023-06-26T12:39:29;99126.72;;;25.92;30.16
44027;BME280;29696;55.698;37.460;2023-06-26T12:42:00;99132.97;;;25.92;30.37
44027;BME280;29696;55.698;37.460;2023-06-26T12:44:28;99134.03;;;25.91;31.20
44027;BME280;29696;55.698;37.460;2023-06-26T12:47:00;99131.81;;;25.88;30.58
44027;BME280;29696;55.698;37.460;2023-06-26T12:49:50;99146.50;;;25.92;29.81
44027;BME280;29696;55.698;37.460;2023-06-26T12:52:17;99132.88;;;25.42;29.85
44027;BME280;29696;55.698;37.460;2023-06-26T12:54:51;99148.69;;;25.33;30.71
44027;BME280;29696;55.698;37.460;2023-06-26T12:57:18;99132.34;;;24.99;30.93
44027;BME280;29696;55.698;37.460;2023-06-26T12:59:44;99133.19;;;24.88;30.90
44027;BME280;29696;55.698;37.460;2023-06-26T13:02:10;99147.66;;;24.82;30.99